sensor_id;sensor_type;location;lat;lon;timestamp;pressure;altitude;pressure_sealevel;temperature;humidity
74637;BME280;63141;54.616;39.754;2023-05-21T00:00:39;100880.97;;;20.50;46.85
74637;BME280;63141;54.616;39.754;2023-05-21T00:03:45;100889.81;;;20.49;46.84
74637;BME280;63141;54.616;39.754;2023-05-21T00:06:46;100881.00;;;20.49;46.69
74637;BME280;63141;54.616;39.754;2023-05-21T00:09:48;100881.00;;;20.49;47.08
74637;BME280;63141;54.616;39.754;2023-05-21T00:12:49;100873.94;;;20.49;46.65
74637;BME280;63141;54.616;39.754;2023-05-21T00:15:56;100876.63;;;20.48;46.84
74637;BME280;63141;54.616;39.754;2023-05-21T00:18:57;100883.66;;;20.47;46.77
74637;BME280;63141;54.616;39.754;2023-05-21T00:22:01;100878.38;;;20.47;46.65
74637;BME280;63141;54.616;39.754;2023-05-21T00:25:04;100879.31;;;20.46;46.78
74637;BME280;63141;54.616;39.754;2023-05-21T00:28:06;100882.81;;;20.45;46.87
74637;BME280;63141;54.616;39.754;2023-05-21T00:31:07;100879.31;;;20.46;46.92
74637;BME280;63141;54.616;39.754;2023-05-21T00:34:09;100883.72;;;20.46;47.03
74637;BME280;63141;54.616;39.754;2023-05-21T00:37:10;100885.47;;;20.45;46.87
74637;BME280;63141;54.616;39.754;2023-05-21T00:40:12;100888.13;;;20.45;47.04
74637;BME280;63141;54.616;39.754;2023-05-21T00:43:25;100887.31;;;20.43;47.05
74637;BME280;63141;54.616;39.754;2023-05-21T00:46:27;100879.38;;;20.43;47.10
74637;BME280;63141;54.616;39.754;2023-05-21T00:49:37;100887.31;;;20.43;46.95
74637;BME280;63141;54.616;39.754;2023-05-21T00:52:42;100889.97;;;20.43;47.07
74637;BME280;63141;54.616;39.754;2023-05-21T00:55:45;100889.97;;;20.43;47.16
74637;BME280;63141;54.616;39.754;2023-05-21T00:58:47;100889.97;;;20.42;47.17
74637;BME280;63141;54.616;39.754;2023-05-21T01:01:51;100882.91;;;20.42;47.17
74637;BME280;63141;54.616;39.754;2023-05-21T01:04:56;100880.28;;;20.41;46.94
74637;BME280;63141;54.616;39.754;2023-05-21T01:08:00;100879.41;;;20.40;46.99
74637;BME280;63141;54.616;39.754;2023-05-21T01:11:04;100876.78;;;20.40;47.18
74637;BME280;63141;54.616;39.754;2023-05-21T01:14:10;100875.88;;;20.41;47.20
74637;BME280;63141;54.616;39.754;2023-05-21T01:17:12;100880.28;;;20.41;47.05
74637;BME280;63141;54.616;39.754;2023-05-21T01:20:18;100879.41;;;20.40;46.96
74637;BME280;63141;54.616;39.754;2023-05-21T01:23:20;100882.06;;;20.40;47.02
74637;BME280;63141;54.616;39.754;2023-05-21T01:26:21;100878.56;;;20.40;47.17
74637;BME280;63141;54.616;39.754;2023-05-21T01:29:26;100882.06;;;20.40;47.04
74637;BME280;63141;54.616;39.754;2023-05-21T01:35:46;100882.97;;;20.39;47.04
74637;BME280;63141;54.616;39.754;2023-05-21T01:41:59;100884.78;;;20.37;46.87
74637;BME280;63141;54.616;39.754;2023-05-21T01:45:09;100890.06;;;20.37;46.92
74637;BME280;63141;54.616;39.754;2023-05-21T01:48:12;100890.09;;;20.36;46.88
74637;BME280;63141;54.616;39.754;2023-05-21T01:51:16;100886.56;;;20.37;46.98
74637;BME280;63141;54.616;39.754;2023-05-21T01:54:19;100888.31;;;20.36;46.87
74637;BME280;63141;54.616;39.754;2023-05-21T01:57:28;100891.88;;;20.35;46.81
74637;BME280;63141;54.616;39.754;2023-05-21T02:00:29;100891.88;;;20.35;46.92
74637;BME280;63141;54.616;39.754;2023-05-21T02:03:38;100896.25;;;20.36;46.97
74637;BME280;63141;54.616;39.754;2023-05-21T02:06:42;100898.09;;;20.34;46.70
74637;BME280;63141;54.616;39.754;2023-05-21T02:09:44;100879.56;;;20.34;46.84
74637;BME280;63141;54.616;39.754;2023-05-21T02:12:45;100888.38;;;20.35;46.65
74637;BME280;63141;54.616;39.754;2023-05-21T02:15:47;100895.44;;;20.34;46.87
74637;BME280;63141;54.616;39.754;2023-05-21T02:18:48;100905.13;;;20.34;46.97
74637;BME280;63141;54.616;39.754;2023-05-21T02:21:53;100888.38;;;20.33;46.88
74637;BME280;63141;54.616;39.754;2023-05-21T02:24:54;100880.47;;;20.33;46.81
74637;BME280;63141;54.616;39.754;2023-05-21T02:27:56;100884.88;;;20.33;46.82
74637;BME280;63141;54.616;39.754;2023-05-21T02:30:57;100888.38;;;20.33;46.82
74637;BME280;63141;54.616;39.754;2023-05-21T02:33:58;100884.91;;;20.31;46.90
74637;BME280;63141;54.616;39.754;2023-05-21T02:37:00;100884.91;;;20.31;46.92
74637;BME280;63141;54.616;39.754;2023-05-21T02:40:03;100892.81;;;20.33;46.88
74637;BME280;63141;54.616;39.754;2023-05-21T02:43:08;100888.41;;;20.32;46.88
74637;BME280;63141;54.616;39.754;2023-05-21T02:46:09;100885.75;;;20.32;46.91
74637;BME280;63141;54.616;39.754;2023-05-21T02:49:10;100896.41;;;20.30;46.97
74637;BME280;63141;54.616;39.754;2023-05-21T02:52:18;100896.34;;;20.32;46.91
74637;BME280;63141;54.616;39.754;2023-05-21T02:55:20;100897.25;;;20.30;46.89
74637;BME280;63141;54.616;39.754;2023-05-21T02:58:23;100898.13;;;20.31;46.91
74637;BME280;63141;54.616;39.754;2023-05-21T03:01:27;100906.06;;;20.31;46.95
74637;BME280;63141;54.616;39.754;2023-05-21T03:04:29;100895.56;;;20.28;46.84
74637;BME280;63141;54.616;39.754;2023-05-21T03:07:38;100895.63;;;20.25;46.95
74637;BME280;63141;54.616;39.754;2023-05-21T03:10:42;100895.66;;;20.22;46.88
74637;BME280;63141;54.616;39.754;2023-05-21T03:13:43;100899.22;;;20.21;46.90
74637;BME280;63141;54.616;39.754;2023-05-21T03:16:45;100894.81;;;20.20;46.69
74637;BME280;63141;54.616;39.754;2023-05-21T03:19:46;100896.63;;;20.18;46.63
74637;BME280;63141;54.616;39.754;2023-05-21T03:22:52;100897.56;;;20.15;46.64
74637;BME280;63141;54.616;39.754;2023-05-21T03:25:55;100899.34;;;20.15;46.55
74637;BME280;63141;54.616;39.754;2023-05-21T03:28:57;100898.50;;;20.13;46.37
74637;BME280;63141;54.616;39.754;2023-05-21T03:31:59;100901.13;;;20.13;46.52
74637;BME280;63141;54.616;39.754;2023-05-21T03:35:08;100893.22;;;20.11;46.29
74637;BME280;63141;54.616;39.754;2023-05-21T03:38:10;100881.78;;;20.11;46.24
74637;BME280;63141;54.616;39.754;2023-05-21T03:41:11;100887.06;;;20.11;46.32
74637;BME280;63141;54.616;39.754;2023-05-21T03:44:15;100880.94;;;20.08;46.26
74637;BME280;63141;54.616;39.754;2023-05-21T03:47:31;100880.94;;;20.08;46.14
74637;BME280;63141;54.616;39.754;2023-05-21T03:50:33;100871.28;;;20.07;46.09
74637;BME280;63141;54.616;39.754;2023-05-21T03:53:38;100881.00;;;20.07;46.14
74637;BME280;63141;54.616;39.754;2023-05-21T03:56:40;100881.84;;;20.07;45.77
74637;BME280;63141;54.616;39.754;2023-05-21T03:59:41;100895.97;;;20.06;45.96
74637;BME280;63141;54.616;39.754;2023-05-21T04:02:45;100892.44;;;20.06;46.24
74637;BME280;63141;54.616;39.754;2023-05-21T04:05:50;100888.94;;;20.05;45.97
74637;BME280;63141;54.616;39.754;2023-05-21T04:08:56;100888.94;;;20.05;45.98
74637;BME280;63141;54.616;39.754;2023-05-21T04:11:58;100883.66;;;20.05;46.22
74637;BME280;63141;54.616;39.754;2023-05-21T04:14:59;100883.66;;;20.05;46.07
74637;BME280;63141;54.616;39.754;2023-05-21T04:18:03;100880.09;;;20.06;46.21
74637;BME280;63141;54.616;39.754;2023-05-21T04:21:05;100884.44;;;20.11;46.12
74637;BME280;63141;54.616;39.754;2023-05-21T04:24:06;100883.47;;;20.15;46.98
74637;BME280;63141;54.616;39.754;2023-05-21T04:27:18;100873.63;;;20.23;47.61
74637;BME280;63141;54.616;39.754;2023-05-21T04:30:19;100874.41;;;20.28;48.22
74637;BME280;63141;54.616;39.754;2023-05-21T04:33:21;100875.19;;;20.32;48.81
74637;BME280;63141;54.616;39.754;2023-05-21T04:36:23;100879.56;;;20.34;48.71
74637;BME280;63141;54.616;39.754;2023-05-21T04:39:24;100880.38;;;20.36;48.37
74637;BME280;63141;54.616;39.754;2023-05-21T04:42:26;100877.72;;;20.36;48.61
74637;BME280;63141;54.616;39.754;2023-05-21T04:45:29;100870.69;;;20.37;48.85
74637;BME280;63141;54.616;39.754;2023-05-21T04:48:34;100873.28;;;20.38;48.91
74637;BME280;63141;54.616;39.754;2023-05-21T04:51:35;100870.63;;;20.38;49.56
74637;BME280;63141;54.616;39.754;2023-05-21T04:54:38;100868.00;;;20.38;49.59
74637;BME280;63141;54.616;39.754;2023-05-21T04:57:42;100872.41;;;20.39;49.28
74637;BME280;63141;54.616;39.754;2023-05-21T05:00:43;100868.88;;;20.39;49.70
74637;BME280;63141;54.616;39.754;2023-05-21T05:04:00;100866.25;;;20.39;49.84
74637;BME280;63141;54.616;39.754;2023-05-21T05:07:02;100870.63;;;20.38;49.97
74637;BME280;63141;54.616;39.754;2023-05-21T05:10:07;100868.84;;;20.40;50.19
74637;BME280;63141;54.616;39.754;2023-05-21T05:13:11;100865.31;;;20.40;49.68
74637;BME280;63141;54.616;39.754;2023-05-21T05:16:18;100870.59;;;20.41;50.14
74637;BME280;63141;54.616;39.754;2023-05-21T05:19:25;100867.03;;;20.42;50.39
74637;BME280;63141;54.616;39.754;2023-05-21T05:22:27;100870.53;;;20.44;50.14
74637;BME280;63141;54.616;39.754;2023-05-21T05:25:31;100865.22;;;20.44;50.29
74637;BME280;63141;54.616;39.754;2023-05-21T05:28:33;100868.72;;;20.46;50.21
74637;BME280;63141;54.616;39.754;2023-05-21T05:31:36;100864.28;;;20.47;50.48
74637;BME280;63141;54.616;39.754;2023-05-21T05:34:37;100866.91;;;20.48;50.72
74637;BME280;63141;54.616;39.754;2023-05-21T05:37:39;100866.91;;;20.48;50.70
74637;BME280;63141;54.616;39.754;2023-05-21T05:40:43;100875.69;;;20.50;50.89
74637;BME280;63141;54.616;39.754;2023-05-21T05:43:44;100870.41;;;20.50;51.07
74637;BME280;63141;54.616;39.754;2023-05-21T05:46:47;100872.13;;;20.51;50.53
74637;BME280;63141;54.616;39.754;2023-05-21T05:49:48;100871.25;;;20.51;50.48
74637;BME280;63141;54.616;39.754;2023-05-21T05:52:49;100864.19;;;20.51;50.68
74637;BME280;63141;54.616;39.754;2023-05-21T05:55:51;100873.84;;;20.54;50.65
74637;BME280;63141;54.616;39.754;2023-05-21T05:58:53;100871.16;;;20.56;50.51
74637;BME280;63141;54.616;39.754;2023-05-21T06:01:57;100873.81;;;20.56;50.48
74637;BME280;63141;54.616;39.754;2023-05-21T06:04:59;100872.94;;;20.57;50.21
74637;BME280;63141;54.616;39.754;2023-05-21T06:08:14;100877.34;;;20.58;50.01
74637;BME280;63141;54.616;39.754;2023-05-21T06:11:16;100869.38;;;20.58;49.48
74637;BME280;63141;54.616;39.754;2023-05-21T06:14:33;100879.97;;;20.59;49.60
74637;BME280;63141;54.616;39.754;2023-05-21T06:17:41;100880.75;;;20.61;48.71
74637;BME280;63141;54.616;39.754;2023-05-21T06:20:42;100876.38;;;20.62;48.05
74637;BME280;63141;54.616;39.754;2023-05-21T06:23:43;100877.22;;;20.64;48.08
74637;BME280;63141;54.616;39.754;2023-05-21T06:26:48;100878.06;;;20.64;47.17
74637;BME280;63141;54.616;39.754;2023-05-21T06:29:52;100882.44;;;20.65;47.50
74637;BME280;63141;54.616;39.754;2023-05-21T06:32:53;100873.63;;;20.66;47.50
74637;BME280;63141;54.616;39.754;2023-05-21T06:36:01;100866.53;;;20.67;47.56
74637;BME280;63141;54.616;39.754;2023-05-21T06:39:05;100871.84;;;20.67;47.33
74637;BME280;63141;54.616;39.754;2023-05-21T06:42:10;100870.06;;;20.66;47.14
74637;BME280;63141;54.616;39.754;2023-05-21T06:45:22;100870.06;;;20.66;46.75
74637;BME280;63141;54.616;39.754;2023-05-21T06:48:29;100876.25;;;20.66;47.01
74637;BME280;63141;54.616;39.754;2023-05-21T06:51:31;100870.06;;;20.66;46.40
74637;BME280;63141;54.616;39.754;2023-05-21T06:54:32;100862.97;;;20.68;46.24
74637;BME280;63141;54.616;39.754;2023-05-21T06:57:36;100859.44;;;20.69;45.67
74637;BME280;63141;54.616;39.754;2023-05-21T07:00:38;100866.47;;;20.70;45.79
74637;BME280;63141;54.616;39.754;2023-05-21T07:03:45;100865.59;;;20.69;45.73
74637;BME280;63141;54.616;39.754;2023-05-21T07:06:49;100860.31;;;20.68;45.51
74637;BME280;63141;54.616;39.754;2023-05-21T07:10:01;100874.47;;;20.67;45.66
74637;BME280;63141;54.616;39.754;2023-05-21T07:13:15;100868.34;;;20.65;45.49
74637;BME280;63141;54.616;39.754;2023-05-21T07:16:22;100861.31;;;20.64;45.06
74637;BME280;63141;54.616;39.754;2023-05-21T07:19:35;100863.97;;;20.64;45.40
74637;BME280;63141;54.616;39.754;2023-05-21T07:22:38;100863.13;;;20.62;45.24
74637;BME280;63141;54.616;39.754;2023-05-21T07:25:43;100857.84;;;20.62;45.09
74637;BME280;63141;54.616;39.754;2023-05-21T07:28:44;100855.13;;;20.63;45.56
74637;BME280;63141;54.616;39.754;2023-05-21T07:31:48;100851.59;;;20.64;45.74
74637;BME280;63141;54.616;39.754;2023-05-21T07:34:58;100854.19;;;20.66;45.69
74637;BME280;63141;54.616;39.754;2023-05-21T07:38:11;100848.88;;;20.67;45.41
74637;BME280;63141;54.616;39.754;2023-05-21T07:41:15;100850.66;;;20.67;45.23
74637;BME280;63141;54.616;39.754;2023-05-21T07:44:26;100849.75;;;20.68;45.10
74637;BME280;63141;54.616;39.754;2023-05-21T07:47:27;100850.66;;;20.67;44.92
74637;BME280;63141;54.616;39.754;2023-05-21T07:50:28;100859.47;;;20.66;44.78
74637;BME280;63141;54.616;39.754;2023-05-21T07:53:32;100855.13;;;20.63;44.56
74637;BME280;63141;54.616;39.754;2023-05-21T07:56:49;100853.41;;;20.62;44.24
74637;BME280;63141;54.616;39.754;2023-05-21T08:00:30;100856.06;;;20.61;44.42
74637;BME280;63141;54.616;39.754;2023-05-21T08:04:04;100856.06;;;20.62;44.45
74637;BME280;63141;54.616;39.754;2023-05-21T08:07:26;100861.31;;;20.64;45.04
74637;BME280;63141;54.616;39.754;2023-05-21T08:10:33;100863.06;;;20.65;45.38
74637;BME280;63141;54.616;39.754;2023-05-21T08:13:35;100855.13;;;20.65;46.09
74637;BME280;63141;54.616;39.754;2023-05-21T08:16:50;100851.53;;;20.66;46.16
74637;BME280;63141;54.616;39.754;2023-05-21T08:20:04;100854.19;;;20.66;46.88
74637;BME280;63141;54.616;39.754;2023-05-21T08:23:09;100852.44;;;20.66;47.63
74637;BME280;63141;54.616;39.754;2023-05-21T08:26:26;100849.75;;;20.68;48.29
74637;BME280;63141;54.616;39.754;2023-05-21T08:29:30;100854.16;;;20.69;48.18
74637;BME280;63141;54.616;39.754;2023-05-21T08:32:38;100859.44;;;20.69;48.18
74637;BME280;63141;54.616;39.754;2023-05-21T08:35:39;100855.00;;;20.69;48.03
74637;BME280;63141;54.616;39.754;2023-05-21T08:39:05;100857.63;;;20.71;48.10
74637;BME280;63141;54.616;39.754;2023-05-21T08:45:41;100844.34;;;20.73;47.42
74637;BME280;63141;54.616;39.754;2023-05-21T08:48:48;100847.88;;;20.73;47.33
74637;BME280;63141;54.616;39.754;2023-05-21T08:52:06;100860.16;;;20.76;47.02
74637;BME280;63141;54.616;39.754;2023-05-21T08:55:14;100856.63;;;20.75;46.77
74637;BME280;63141;54.616;39.754;2023-05-21T08:58:23;100857.47;;;20.77;46.31
74637;BME280;63141;54.616;39.754;2023-05-21T09:01:31;100853.09;;;20.76;45.98
74637;BME280;63141;54.616;39.754;2023-05-21T09:04:45;100860.13;;;20.77;45.68
74637;BME280;63141;54.616;39.754;2023-05-21T09:08:10;100857.53;;;20.76;45.05
74637;BME280;63141;54.616;39.754;2023-05-21T09:11:30;100852.25;;;20.74;45.09
74637;BME280;63141;54.616;39.754;2023-05-21T09:14:37;100862.84;;;20.74;44.86
74637;BME280;63141;54.616;39.754;2023-05-21T09:18:07;100856.72;;;20.72;44.57
74637;BME280;63141;54.616;39.754;2023-05-21T09:21:50;100855.88;;;20.70;44.66
74637;BME280;63141;54.616;39.754;2023-05-21T09:25:02;100859.44;;;20.69;44.24
74637;BME280;63141;54.616;39.754;2023-05-21T09:28:14;100861.22;;;20.68;44.45
74637;BME280;63141;54.616;39.754;2023-05-21T09:31:24;100855.03;;;20.68;44.49
74637;BME280;63141;54.616;39.754;2023-05-21T09:34:29;100858.59;;;20.67;44.41
74637;BME280;63141;54.616;39.754;2023-05-21T09:37:39;100863.91;;;20.67;44.47
74637;BME280;63141;54.616;39.754;2023-05-21T09:40:44;100855.94;;;20.67;44.47
74637;BME280;63141;54.616;39.754;2023-05-21T09:44:02;100849.78;;;20.66;44.72
74637;BME280;63141;54.616;39.754;2023-05-21T09:47:11;100856.84;;;20.66;44.58
74637;BME280;63141;54.616;39.754;2023-05-21T09:50:25;100861.25;;;20.67;45.05
74637;BME280;63141;54.616;39.754;2023-05-21T09:53:34;100854.19;;;20.66;44.95
74637;BME280;63141;54.616;39.754;2023-05-21T09:56:38;100854.19;;;20.66;44.76
74637;BME280;63141;54.616;39.754;2023-05-21T09:59:45;100855.03;;;20.68;44.75
74637;BME280;63141;54.616;39.754;2023-05-21T10:03:23;100855.00;;;20.69;44.35
74637;BME280;63141;54.616;39.754;2023-05-21T10:06:49;100850.56;;;20.70;44.21
74637;BME280;63141;54.616;39.754;2023-05-21T10:09:56;100857.66;;;20.69;44.25
74637;BME280;63141;54.616;39.754;2023-05-21T10:13:20;100864.72;;;20.69;44.23
74637;BME280;63141;54.616;39.754;2023-05-21T10:16:38;100863.81;;;20.70;44.31
74637;BME280;63141;54.616;39.754;2023-05-21T10:19:48;100858.56;;;20.68;44.00
74637;BME280;63141;54.616;39.754;2023-05-21T10:22:54;100857.69;;;20.68;43.99
74637;BME280;63141;54.616;39.754;2023-05-21T10:26:14;100857.69;;;20.68;43.49
74637;BME280;63141;54.616;39.754;2023-05-21T10:29:28;100855.00;;;20.69;43.47
74637;BME280;63141;54.616;39.754;2023-05-21T10:32:31;100862.97;;;20.68;43.69
74637;BME280;63141;54.616;39.754;2023-05-21T10:35:33;100857.69;;;20.68;43.59
74637;BME280;63141;54.616;39.754;2023-05-21T10:38:37;100859.47;;;20.66;43.27
74637;BME280;63141;54.616;39.754;2023-05-21T10:42:02;100863.03;;;20.66;43.24
74637;BME280;63141;54.616;39.754;2023-05-21T10:52:54;100855.09;;;20.66;43.22
74637;BME280;63141;54.616;39.754;2023-05-21T10:59:49;100856.81;;;20.67;42.81
74637;BME280;63141;54.616;39.754;2023-05-21T11:03:16;100855.94;;;20.67;42.72
74637;BME280;63141;54.616;39.754;2023-05-21T11:06:40;100852.47;;;20.65;42.88
74637;BME280;63141;54.616;39.754;2023-05-21T11:09:50;100860.41;;;20.65;43.00
74637;BME280;63141;54.616;39.754;2023-05-21T11:13:46;100867.47;;;20.64;42.69
74637;BME280;63141;54.616;39.754;2023-05-21T11:17:14;100864.84;;;20.63;42.72
74637;BME280;63141;54.616;39.754;2023-05-21T11:20:21;100867.50;;;20.63;42.65
74637;BME280;63141;54.616;39.754;2023-05-21T11:26:59;100862.22;;;20.61;42.98
74637;BME280;63141;54.616;39.754;2023-05-21T11:30:15;100864.84;;;20.63;43.03
74637;BME280;63141;54.616;39.754;2023-05-21T11:33:22;100862.22;;;20.63;43.28
74637;BME280;63141;54.616;39.754;2023-05-21T11:36:26;100864.84;;;20.63;43.17
74637;BME280;63141;54.616;39.754;2023-05-21T11:39:52;100870.06;;;20.66;44.61
74637;BME280;63141;54.616;39.754;2023-05-21T11:43:05;100856.84;;;20.66;45.25
74637;BME280;63141;54.616;39.754;2023-05-21T11:46:10;100859.47;;;20.67;45.61
74637;BME280;63141;54.616;39.754;2023-05-21T11:49:15;100860.31;;;20.68;45.73
74637;BME280;63141;54.616;39.754;2023-05-21T11:52:26;100853.28;;;20.68;45.82
74637;BME280;63141;54.616;39.754;2023-05-21T11:55:37;100854.16;;;20.69;45.75
74637;BME280;63141;54.616;39.754;2023-05-21T11:58:46;100853.31;;;20.67;45.72
74637;BME280;63141;54.616;39.754;2023-05-21T12:02:03;100855.03;;;20.68;45.84
74637;BME280;63141;54.616;39.754;2023-05-21T12:05:24;100856.81;;;20.67;45.50
74637;BME280;63141;54.616;39.754;2023-05-21T12:08:27;100850.66;;;20.67;45.41
74637;BME280;63141;54.616;39.754;2023-05-21T12:11:28;100853.31;;;20.67;44.81
74637;BME280;63141;54.616;39.754;2023-05-21T12:14:33;100850.66;;;20.67;44.96
74637;BME280;63141;54.616;39.754;2023-05-21T12:17:43;100852.47;;;20.65;44.55
74637;BME280;63141;54.616;39.754;2023-05-21T12:20:45;100855.13;;;20.65;44.54
74637;BME280;63141;54.616;39.754;2023-05-21T12:23:54;100850.75;;;20.64;44.27
74637;BME280;63141;54.616;39.754;2023-05-21T12:27:20;100848.13;;;20.62;43.55
74637;BME280;63141;54.616;39.754;2023-05-21T12:30:33;100848.13;;;20.62;43.40
74637;BME280;63141;54.616;39.754;2023-05-21T12:33:50;100854.28;;;20.61;43.44
74637;BME280;63141;54.616;39.754;2023-05-21T12:36:57;100841.13;;;20.60;43.35
74637;BME280;63141;54.616;39.754;2023-05-21T12:40:11;100855.22;;;20.60;43.27
74637;BME280;63141;54.616;39.754;2023-05-21T12:43:21;100850.88;;;20.58;43.10
74637;BME280;63141;54.616;39.754;2023-05-21T12:46:37;100843.81;;;20.57;42.76
74637;BME280;63141;54.616;39.754;2023-05-21T12:50:09;100853.53;;;20.56;42.48
74637;BME280;63141;54.616;39.754;2023-05-21T12:53:25;100840.28;;;20.55;42.10
74637;BME280;63141;54.616;39.754;2023-05-21T12:56:45;100842.06;;;20.56;42.10
74637;BME280;63141;54.616;39.754;2023-05-21T12:59:56;100833.28;;;20.54;42.02
74637;BME280;63141;54.616;39.754;2023-05-21T13:03:18;100843.00;;;20.53;41.98
74637;BME280;63141;54.616;39.754;2023-05-21T13:06:45;100848.28;;;20.53;41.75
74637;BME280;63141;54.616;39.754;2023-05-21T13:10:11;100836.84;;;20.53;41.98
74637;BME280;63141;54.616;39.754;2023-05-21T13:13:24;100834.19;;;20.53;42.10
74637;BME280;63141;54.616;39.754;2023-05-21T13:16:35;100841.28;;;20.50;41.97
74637;BME280;63141;54.616;39.754;2023-05-21T13:20:07;100834.22;;;20.51;42.06
74637;BME280;63141;54.616;39.754;2023-05-21T13:23:20;100836.88;;;20.49;42.13
74637;BME280;63141;54.616;39.754;2023-05-21T13:26:42;100835.06;;;20.51;42.17
74637;BME280;63141;54.616;39.754;2023-05-21T13:30:02;100837.69;;;20.53;42.24
74637;BME280;63141;54.616;39.754;2023-05-21T13:33:10;100833.28;;;20.54;42.55
74637;BME280;63141;54.616;39.754;2023-05-21T13:36:17;100832.34;;;20.55;42.61
74637;BME280;63141;54.616;39.754;2023-05-21T13:39:36;100838.53;;;20.57;42.52
74637;BME280;63141;54.616;39.754;2023-05-21T13:43:05;100840.28;;;20.58;42.36
74637;BME280;63141;54.616;39.754;2023-05-21T13:46:24;100832.34;;;20.58;42.45
74637;BME280;63141;54.616;39.754;2023-05-21T13:49:45;100834.97;;;20.58;42.91
74637;BME280;63141;54.616;39.754;2023-05-21T13:52:49;100830.56;;;20.58;43.12
74637;BME280;63141;54.616;39.754;2023-05-21T13:56:00;100832.22;;;20.64;43.28
74637;BME280;63141;54.616;39.754;2023-05-21T13:59:16;100832.03;;;20.71;43.62
74637;BME280;63141;54.616;39.754;2023-05-21T14:02:45;100822.94;;;20.82;43.46
74637;BME280;63141;54.616;39.754;2023-05-21T14:06:39;100832.44;;;20.90;43.52
74637;BME280;63141;54.616;39.754;2023-05-21T14:09:50;100828.84;;;20.95;43.46
74637;BME280;63141;54.616;39.754;2023-05-21T14:13:15;100823.44;;;20.98;43.60
74637;BME280;63141;54.616;39.754;2023-05-21T14:16:31;100829.53;;;21.03;43.51
74637;BME280;63141;54.616;39.754;2023-05-21T14:19:57;100825.03;;;21.05;43.15
74637;BME280;63141;54.616;39.754;2023-05-21T14:22:58;100830.31;;;21.06;42.99
74637;BME280;63141;54.616;39.754;2023-05-21T14:26:09;100826.72;;;21.09;42.82
74637;BME280;63141;54.616;39.754;2023-05-21T14:29:16;100826.56;;;21.15;42.82
74637;BME280;63141;54.616;39.754;2023-05-21T14:32:20;100828.22;;;21.19;42.52
74637;BME280;63141;54.616;39.754;2023-05-21T14:35:48;100819.22;;;21.26;42.70
74637;BME280;63141;54.616;39.754;2023-05-21T14:38:52;100812.84;;;21.33;42.43
74637;BME280;63141;54.616;39.754;2023-05-21T14:42:07;100808.25;;;21.42;42.41
74637;BME280;63141;54.616;39.754;2023-05-21T14:45:17;100811.66;;;21.47;42.39
74637;BME280;63141;54.616;39.754;2023-05-21T14:48:21;100815.03;;;21.52;42.31
74637;BME280;63141;54.616;39.754;2023-05-21T14:51:26;100819.38;;;21.56;42.47
74637;BME280;63141;54.616;39.754;2023-05-21T14:54:39;100816.63;;;21.59;42.21
74637;BME280;63141;54.616;39.754;2023-05-21T14:57:47;100813.88;;;21.62;42.04
74637;BME280;63141;54.616;39.754;2023-05-21T15:01:18;100809.41;;;21.64;42.13
74637;BME280;63141;54.616;39.754;2023-05-21T15:04:37;100813.81;;;21.65;42.30
74637;BME280;63141;54.616;39.754;2023-05-21T15:07:46;100798.91;;;21.61;42.14
74637;BME280;63141;54.616;39.754;2023-05-21T15:10:48;100810.44;;;21.59;42.01
74637;BME280;63141;54.616;39.754;2023-05-21T15:13:49;100804.22;;;21.60;42.14
74637;BME280;63141;54.616;39.754;2023-05-21T15:17:12;100796.13;;;21.66;42.20
74637;BME280;63141;54.616;39.754;2023-05-21T15:20:16;100795.88;;;21.73;42.00
74637;BME280;63141;54.616;39.754;2023-05-21T15:23:23;100800.13;;;21.81;42.43
74637;BME280;63141;54.616;39.754;2023-05-21T15:26:30;100797.34;;;21.85;42.07
74637;BME280;63141;54.616;39.754;2023-05-21T15:29:47;100790.41;;;21.80;42.18
74637;BME280;63141;54.616;39.754;2023-05-21T15:33:00;100794.03;;;21.77;42.57
74637;BME280;63141;54.616;39.754;2023-05-21T15:36:07;100784.41;;;21.73;42.54
74637;BME280;63141;54.616;39.754;2023-05-21T15:39:12;100791.50;;;21.72;42.87
74637;BME280;63141;54.616;39.754;2023-05-21T15:42:40;100790.66;;;21.72;42.87
74637;BME280;63141;54.616;39.754;2023-05-21T15:45:45;100791.63;;;21.69;42.91
74637;BME280;63141;54.616;39.754;2023-05-21T15:48:55;100785.50;;;21.66;42.77
74637;BME280;63141;54.616;39.754;2023-05-21T15:52:14;100783.72;;;21.66;42.76
74637;BME280;63141;54.616;39.754;2023-05-21T15:55:18;100789.00;;;21.68;43.04
74637;BME280;63141;54.616;39.754;2023-05-21T15:58:22;100781.06;;;21.66;43.19
74637;BME280;63141;54.616;39.754;2023-05-21T16:01:30;100781.06;;;21.66;43.27
74637;BME280;63141;54.616;39.754;2023-05-21T16:04:39;100786.38;;;21.66;43.42
74637;BME280;63141;54.616;39.754;2023-05-21T16:07:56;100789.03;;;21.66;43.70
74637;BME280;63141;54.616;39.754;2023-05-21T16:11:00;100780.25;;;21.64;43.78
74637;BME280;63141;54.616;39.754;2023-05-21T16:14:13;100784.72;;;21.62;44.16
74637;BME280;63141;54.616;39.754;2023-05-21T16:17:33;100791.78;;;21.63;43.99
74637;BME280;63141;54.616;39.754;2023-05-21T16:20:37;100791.66;;;21.66;44.37
74637;BME280;63141;54.616;39.754;2023-05-21T16:23:39;100795.88;;;21.73;44.70
74637;BME280;63141;54.616;39.754;2023-05-21T16:26:58;100793.94;;;21.80;44.77
74637;BME280;63141;54.616;39.754;2023-05-21T16:30:12;100803.53;;;21.86;44.70
74637;BME280;63141;54.616;39.754;2023-05-21T16:33:37;100801.69;;;21.88;44.76
74637;BME280;63141;54.616;39.754;2023-05-21T16:36:48;100802.53;;;21.90;44.93
74637;BME280;63141;54.616;39.754;2023-05-21T16:40:08;100812.09;;;21.94;44.99